Time;durP1;ratioP1;P1;durP2;ratioP2;P2;SDS_P1;SDS_P2;PMS_P1;PMS_P2;Temp;Humidity;BMP_temperature;BMP_pressure;BME280_temperature;BME280_humidity;BME280_pressure;Samples;Min_cycle;Max_cycle;Signal;HPM_P1;HPM_P2
2022/12/02 00:02:30;;;;;;;72.45;30.80;;;;;;;7.36;57.12;98535.28;4428963;32;20057;-83
2022/12/02 00:05:03;;;;;;;81.32;33.17;;;;;;;7.88;55.92;98539.22;4429050;32;20078;-83
2022/12/02 00:07:32;;;;;;;85.40;37.00;;;;;;;8.08;55.52;98533.56;4426263;32;20385;-83
2022/12/02 00:09:59;;;;;;;84.62;36.30;;;;;;;7.92;55.63;98534.84;4427407;32;20100;-83
2022/12/02 00:12:27;;;;;;;;;;;;;;;7.46;56.39;98531.63;4427533;32;20702;-83
2022/12/02 00:15:02;;;;;;;61.92;27.33;;;;;;;7.77;55.41;98538.63;4426609;32;19965;-83
2022/12/02 00:17:29;;;;;;;68.18;28.45;;;;;;;7.60;55.44;98531.31;4426014;32;20101;-83
2022/12/02 00:19:57;;;;;;;73.07;31.02;;;;;;;7.83;54.71;98539.31;4427367;32;20089;-83
2022/12/02 00:22:24;;;;;;;72.87;31.98;;;;;;;8.04;54.06;98534.53;4427534;32;20086;-83
2022/12/02 00:24:51;;;;;;;85.12;35.50;;;;;;;7.87;53.75;98536.66;4426882;32;20086;-83
2022/12/02 00:27:21;;;;;;;83.37;33.50;;;;;;;8.15;52.54;98529.13;4427665;32;20124;-83
2022/12/02 00:29:48;;;;;;;75.15;31.30;;;;;;;8.03;52.84;98523.41;4427374;32;20439;-83
2022/12/02 00:32:14;;;;;;;61.70;28.02;;;;;;;7.63;54.01;98530.37;4425718;32;20094;-83
2022/12/02 00:34:41;;;;;;;53.65;24.40;;;;;;;7.99;53.24;98532.09;4427324;32;20070;-83
2022/12/02 00:37:08;;;;;;;;;;;;;;;8.16;52.86;98533.38;4427636;32;20108;-83
2022/12/02 00:39:35;;;;;;;60.63;26.35;;;;;;;8.11;53.52;98525.78;4427021;32;19969;-83
2022/12/02 00:42:02;;;;;;;;;;;;;;;8.04;53.63;98521.69;4430244;32;20443;-83
2022/12/02 00:47:14;;;;;;;47.10;21.02;;;;;;;8.15;54.02;98534.25;4429231;32;20158;-83
2022/12/02 00:49:41;;;;;;;;;;;;;;;8.13;54.18;98526.59;4429635;32;20062;-83
2022/12/02 00:52:08;;;;;;;54.78;22.85;;;;;;;8.31;53.86;98527.84;4429115;32;19988;-83
2022/12/02 00:54:35;;;;;;;63.83;27.48;;;;;;;8.37;52.92;98531.13;4428147;32;20116;-83
2022/12/02 00:57:02;;;;;;;60.63;27.42;;;;;;;8.38;52.41;98525.09;4428429;32;20377;-83
2022/12/02 00:59:29;;;;;;;59.53;25.88;;;;;;;8.32;52.53;98530.37;4428173;32;20102;-83
2022/12/02 01:01:56;;;;;;;52.08;23.48;;;;;;;8.46;52.04;98518.91;4427830;32;20086;-83
2022/12/02 01:04:23;;;;;;;51.65;23.05;;;;;;;7.99;53.26;98515.81;4427088;32;20108;-83
2022/12/02 01:06:49;;;;;;;;;;;;;;;7.66;54.93;98520.91;4437292;32;20097;-83
2022/12/02 01:09:16;;;;;;;52.22;21.62;;;;;;;7.09;56.65;98520.47;4442011;32;20310;-83
2022/12/02 01:11:43;;;;;;;54.05;22.87;;;;;;;7.98;54.60;98517.56;4443129;32;20085;-82
2022/12/02 01:14:10;;;;;;;45.97;21.17;;;;;;;7.38;56.21;98522.41;4442859;32;20100;-82
2022/12/02 01:16:37;;;;;;;46.42;20.62;;;;;;;6.67;58.99;98516.16;4444219;32;20093;-83
2022/12/02 01:19:04;;;;;;;44.25;20.62;;;;;;;6.75;60.07;98508.34;4443935;32;20105;-83
2022/12/02 01:21:30;;;;;;;;;;;;;;;6.53;60.50;98510.47;4444621;32;20104;-83
2022/12/02 01:23:57;;;;;;;47.35;21.90;;;;;;;7.18;58.13;98510.84;4444874;32;20031;-83
2022/12/02 01:26:24;;;;;;;;;;;;;;;7.59;56.68;98506.50;4444925;32;20109;-83
2022/12/02 01:28:51;;;;;;;44.88;20.62;;;;;;;7.78;55.85;98507.75;4444210;32;19977;-83
2022/12/02 01:31:17;;;;;;;;;;;;;;;8.13;54.57;98506.03;4444415;32;20085;-83
2022/12/02 01:33:44;;;;;;;40.03;18.70;;;;;;;8.13;54.15;98513.75;4444000;32;19965;-83
2022/12/02 01:36:11;;;;;;;41.95;19.75;;;;;;;8.27;52.68;98511.66;4443846;32;20104;-83
2022/12/02 01:38:38;;;;;;;39.08;18.77;;;;;;;8.23;52.41;98511.78;4444071;32;20062;-83
2022/12/02 01:41:05;;;;;;;;;;;;;;;8.30;52.22;98510.75;4443863;32;20058;-83
2022/12/02 01:43:32;;;;;;;41.75;19.35;;;;;;;8.25;52.41;98512.59;4429618;32;19961;-83
2022/12/02 01:45:59;;;;;;;41.15;18.60;;;;;;;7.96;53.68;98505.59;4443843;32;20142;-83
2022/12/02 01:48:27;;;;;;;40.90;18.10;;;;;;;7.17;58.11;98503.19;4429400;32;20462;-83
2022/12/02 01:50:56;;;;;;;43.28;17.90;;;;;;;7.53;58.78;98501.50;4429631;32;20181;-83
2022/12/02 01:53:22;;;;;;;42.65;18.52;;;;;;;6.41;64.80;98504.75;4429271;32;20057;-82
2022/12/02 01:55:49;;;;;;;44.35;17.55;;;;;;;6.13;67.06;98507.78;4442614;32;20119;-83
2022/12/02 01:58:19;;;;;;;42.83;19.50;;;;;;;6.26;67.52;98503.28;4443010;32;20155;-83
2022/12/02 02:00:46;;;;;;;43.42;17.37;;;;;;;5.79;69.62;98510.06;4429082;32;20147;-82
2022/12/02 02:03:13;;;;;;;40.97;18.80;;;;;;;5.86;70.02;98501.41;4442451;32;20490;-82
2022/12/02 02:05:40;;;;;;;36.90;17.25;;;;;;;5.82;70.42;98510.00;4442103;32;20203;-83
2022/12/02 02:08:09;;;;;;;47.10;18.40;;;;;;;5.96;70.43;98508.09;4442699;32;20146;-83
2022/12/02 02:10:37;;;;;;;44.85;19.45;;;;;;;5.49;72.92;98509.66;4428338;32;20112;-83
2022/12/02 02:13:06;;;;;;;50.75;19.35;;;;;;;5.01;75.32;98508.66;4442742;32;20077;-83
2022/12/02 02:15:34;;;;;;;49.58;20.58;;;;;;;5.64;72.74;98505.19;4443315;32;20713;-83
2022/12/02 02:18:01;;;;;;;46.22;21.05;;;;;;;5.62;71.29;98504.34;4429322;32;20163;-83
2022/12/02 02:20:31;;;;;;;48.87;18.12;;;;;;;5.39;72.86;98497.84;4443079;32;20112;-83
2022/12/02 02:23:04;;;;;;;44.35;20.17;;;;;;;6.40;68.53;98506.47;4429220;32;20147;-83
2022/12/02 02:25:38;;;;;;;43.47;19.02;;;;;;;6.77;66.81;98508.28;4442845;32;20089;-83
2022/12/02 02:28:05;;;;;;;47.22;18.98;;;;;;;6.51;67.18;98504.53;4443321;32;20101;-83
2022/12/02 02:30:33;;;;;;;42.88;19.12;;;;;;;6.19;67.64;98502.56;4442835;32;20104;-82
2022/12/02 02:33:02;;;;;;;44.75;19.15;;;;;;;5.57;69.98;98504.44;4429435;32;20104;-83
2022/12/02 02:35:30;;;;;;;45.28;20.08;;;;;;;6.35;67.96;98506.53;4428985;32;20097;-83
2022/12/02 02:37:57;;;;;;;38.95;16.70;;;;;;;6.20;68.36;98511.09;4442644;32;20093;-83
2022/12/02 02:40:25;;;;;;;41.90;18.95;;;;;;;6.90;65.28;98509.72;4442886;32;20493;-83
2022/12/02 02:42:54;;;;;;;42.62;18.80;;;;;;;6.01;68.98;98505.44;4442943;32;20073;-83
2022/12/02 02:45:22;;;;;;;44.60;19.42;;;;;;;5.73;69.00;98510.13;4442641;32;20097;-83
2022/12/02 02:47:49;;;;;;;48.15;20.92;;;;;;;5.97;68.75;98502.09;4442801;32;20159;-83
2022/12/02 02:50:17;;;;;;;43.95;20.05;;;;;;;5.64;71.93;98506.03;4442139;32;20195;-83
2022/12/02 02:52:44;;;;;;;47.40;20.05;;;;;;;5.02;75.07;98509.50;4441221;32;20078;-83
2022/12/02 02:55:20;;;;;;;48.85;20.50;;;;;;;4.53;77.01;98504.97;4427842;32;20097;-83
2022/12/02 02:57:48;;;;;;;49.78;21.17;;;;;;;4.03;79.58;98506.31;4442291;32;20092;-83
2022/12/02 03:00:16;;;;;;;45.30;20.17;;;;;;;4.19;81.31;98499.37;4441412;32;20098;-83
2022/12/02 03:02:45;;;;;;;46.30;20.15;;;;;;;3.48;86.29;98494.03;4428033;32;20108;-83
2022/12/02 03:05:12;;;;;;;51.90;21.15;;;;;;;2.91;88.54;98501.19;4441448;32;20157;-83
2022/12/02 03:07:39;;;;;;;52.80;22.80;;;;;;;3.75;84.37;98498.91;4441460;32;20511;-83
2022/12/02 03:10:07;;;;;;;52.78;22.48;;;;;;;4.26;81.06;98506.97;4441215;32;20102;-83
2022/12/02 03:12:34;;;;;;;44.40;20.73;;;;;;;5.61;74.76;98508.63;4427635;32;20188;-83
2022/12/02 03:15:02;;;;;;;58.22;22.60;;;;;;;5.42;73.80;98502.94;4440960;32;20135;-83
2022/12/02 03:17:29;;;;;;;50.63;23.05;;;;;;;5.37;73.64;98502.16;4426459;32;20120;-83
2022/12/02 03:19:56;;;;;;;58.95;24.87;;;;;;;4.53;77.10;98498.13;4426734;32;20073;-83
2022/12/02 03:22:23;;;;;;;50.30;21.50;;;;;;;4.94;76.19;98501.91;4426989;32;20086;-83
2022/12/02 03:24:50;;;;;;;47.67;20.75;;;;;;;6.94;67.76;98503.69;4426702;32;20110;-83
2022/12/02 03:27:18;;;;;;;45.55;20.40;;;;;;;7.05;65.74;98498.31;4426580;32;20105;-83
2022/12/02 03:29:45;;;;;;;46.00;19.62;;;;;;;7.94;60.58;98503.06;4440388;32;20094;-83
2022/12/02 03:32:12;;;;;;;44.42;20.45;;;;;;;8.24;57.88;98501.47;4440807;32;20073;-83
2022/12/02 03:34:40;;;;;;;47.58;19.00;;;;;;;8.47;56.64;98500.88;4440146;32;20447;-83
2022/12/02 03:37:08;;;;;;;41.67;18.35;;;;;;;8.82;54.47;98505.03;4440861;32;20107;-82
2022/12/02 03:39:36;;;;;;;43.15;19.08;;;;;;;8.31;55.89;98508.13;4441175;32;20108;-83
2022/12/02 03:42:03;;;;;;;46.08;19.85;;;;;;;7.99;58.22;98508.97;4441131;32;20117;-83
2022/12/02 03:44:30;;;;;;;42.45;19.15;;;;;;;7.63;59.22;98502.13;4441259;32;20199;-83
2022/12/02 03:46:57;;;;;;;45.85;19.50;;;;;;;7.29;60.76;98508.03;4441486;32;20105;-83
2022/12/02 03:49:24;;;;;;;47.20;20.05;;;;;;;6.71;64.34;98505.88;4440794;32;20150;-83
2022/12/02 03:51:51;;;;;;;43.00;19.70;;;;;;;6.32;66.02;98493.78;4427517;32;20078;-83
2022/12/02 03:54:18;;;;;;;41.13;18.05;;;;;;;6.75;64.68;98492.94;4441318;32;20166;-83
2022/12/02 03:56:45;;;;;;;45.33;19.73;;;;;;;6.76;64.88;98492.06;4427097;32;20123;-83
2022/12/02 03:59:19;;;;;;;37.30;18.25;;;;;;;7.28;63.34;98490.13;4440980;32;20134;-83
2022/12/02 04:01:49;;;;;;;41.92;18.95;;;;;;;7.28;62.46;98505.50;4427768;32;20081;-83
2022/12/02 04:04:16;;;;;;;42.30;18.73;;;;;;;6.88;63.71;98496.94;4441626;32;20062;-83
2022/12/02 04:06:43;;;;;;;45.60;19.50;;;;;;;7.24;63.02;98494.47;4441275;32;20097;-83
2022/12/02 04:09:09;;;;;;;43.47;18.87;;;;;;;7.63;61.41;98497.84;4441131;32;20109;-83
2022/12/02 04:11:36;;;;;;;43.72;19.10;;;;;;;7.89;60.45;98493.81;4441600;32;20078;-83
2022/12/02 04:14:03;;;;;;;39.50;18.05;;;;;;;8.65;57.21;98481.53;4427405;32;20780;-83
2022/12/02 04:16:30;;;;;;;42.25;18.90;;;;;;;9.17;54.34;98492.87;4441218;32;20093;-83
2022/12/02 04:18:57;;;;;;;46.10;19.83;;;;;;;8.79;54.83;98492.25;4440864;32;20131;-83
2022/12/02 04:21:24;;;;;;;39.00;18.08;;;;;;;8.01;58.34;98488.34;4441010;32;20436;-83
2022/12/02 04:23:51;;;;;;;43.50;19.45;;;;;;;7.40;61.82;98480.41;4440347;32;20101;-83
2022/12/02 04:26:19;;;;;;;40.85;18.15;;;;;;;7.77;60.49;98479.53;4441222;32;20065;-83
2022/12/02 04:28:46;;;;;;;43.55;19.08;;;;;;;6.25;67.92;98484.50;4443046;32;20152;-83
2022/12/02 04:31:13;;;;;;;41.30;19.17;;;;;;;6.21;68.67;98480.31;4442813;32;20089;-83
2022/12/02 04:33:40;;;;;;;40.05;19.23;;;;;;;6.91;65.48;98488.31;4443244;32;20116;-83
2022/12/02 04:36:07;;;;;;;42.47;18.83;;;;;;;7.88;61.93;98489.56;4443040;32;20175;-83
2022/12/02 04:38:34;;;;;;;43.58;18.95;;;;;;;8.05;60.93;98488.22;4442743;32;20097;-83
2022/12/02 04:41:01;;;;;;;;;;;;;;;8.18;60.12;98486.19;4443334;32;20424;-83
2022/12/02 04:43:27;;;;;;;41.28;17.48;;;;;;;5.70;69.05;98485.44;4442889;32;19977;-83
2022/12/02 04:45:54;;;;;;;;;;;;;;;5.06;74.10;98490.66;4442699;32;20151;-83
2022/12/02 04:48:21;;;;;;;42.40;17.02;;;;;;;5.16;74.08;98492.22;4442963;32;19969;-83
2022/12/02 04:50:48;;;;;;;44.00;17.62;;;;;;;3.62;81.29;98491.37;4442640;32;20081;-83
2022/12/02 04:53:15;;;;;;;42.97;18.95;;;;;;;4.64;77.40;98492.91;4442409;32;20105;-83
2022/12/02 04:55:45;;;;;;;41.25;19.65;;;;;;;4.67;77.06;98485.19;4442629;32;20151;-83
2022/12/02 04:58:12;;;;;;;45.95;18.12;;;;;;;4.62;77.22;98492.09;4442475;32;20139;-83
2022/12/02 05:00:39;;;;;;;46.97;19.55;;;;;;;4.60;78.01;98487.00;4442509;32;20072;-83
2022/12/02 05:03:06;;;;;;;46.47;19.05;;;;;;;4.41;79.64;98488.06;4442605;32;20605;-83
2022/12/02 05:05:33;;;;;;;44.60;18.35;;;;;;;4.21;79.40;98489.97;4442150;32;20115;-83
2022/12/02 05:08:00;;;;;;;42.22;17.10;;;;;;;4.59;78.97;98484.47;4442723;32;20085;-83
2022/12/02 05:10:27;;;;;;;47.83;19.33;;;;;;;3.59;83.87;98484.56;4442456;32;20073;-83
2022/12/02 05:12:54;;;;;;;41.65;17.92;;;;;;;3.88;83.07;98484.34;4441801;32;20441;-83
2022/12/02 05:15:21;;;;;;;;;;;;;;;3.57;84.40;98486.31;4428699;32;20460;-83
2022/12/02 05:17:48;;;;;;;41.47;16.60;;;;;;;3.56;85.01;98483.75;4442389;32;19991;-82
2022/12/02 05:20:16;;;;;;;45.30;17.90;;;;;;;3.09;87.64;98483.25;4441719;32;20104;-83
2022/12/02 05:22:43;;;;;;;41.40;17.50;;;;;;;3.46;86.40;98485.53;4442045;32;20093;-83
2022/12/02 05:25:09;;;;;;;;;;;;;;;4.13;82.95;98487.50;4428234;32;20113;-83
2022/12/02 05:27:36;;;;;;;36.92;16.05;;;;;;;4.78;81.14;98491.00;4427853;32;19949;-83
2022/12/02 05:30:04;;;;;;;40.12;16.37;;;;;;;4.61;80.21;98488.69;4441620;32;20147;-83
2022/12/02 05:32:31;;;;;;;40.97;16.95;;;;;;;5.17;77.40;98494.75;4428073;32;20150;-83
2022/12/02 05:34:58;;;;;;;40.40;16.20;;;;;;;5.47;76.45;98490.06;4441312;32;20230;-83
2022/12/02 05:37:25;;;;;;;;;;;;;;;5.88;73.72;98489.41;4442099;32;20085;-83
2022/12/02 05:39:52;;;;;;;40.38;17.37;;;;;;;5.64;75.48;98485.56;4440795;32;19975;-83
2022/12/02 05:42:19;;;;;;;38.20;16.62;;;;;;;5.69;73.43;98486.31;4427557;32;20167;-83
2022/12/02 05:44:46;;;;;;;42.22;17.30;;;;;;;4.86;78.12;98489.22;4427770;32;20119;-83
2022/12/02 05:47:15;;;;;;;40.75;18.02;;;;;;;4.96;77.22;98484.81;4441369;32;20099;-83
2022/12/02 05:49:43;;;;;;;42.22;17.98;;;;;;;5.14;77.73;98492.25;4427835;32;20380;-83
2022/12/02 05:52:28;;;;;;;43.13;17.00;;;;;;;4.99;78.12;98496.72;4441551;32;20110;-83
2022/12/02 05:54:57;;;;;;;39.25;17.40;;;;;;;4.23;82.27;98495.91;4440839;32;20085;-83
2022/12/02 05:57:27;;;;;;;41.72;16.75;;;;;;;3.93;83.40;98491.94;4427500;32;20169;-83
2022/12/02 06:00:05;;;;;;;36.78;15.23;;;;;;;4.09;83.26;98493.50;4427519;32;20086;-82
2022/12/02 06:02:33;;;;;;;;;;;;;;;3.79;83.27;98474.22;4427632;32;20448;-83
2022/12/02 06:05:42;;;;;;;36.55;14.75;;;;;;;4.86;79.60;98496.03;4428837;32;20001;-83
2022/12/02 06:08:32;;;;;;;39.17;16.50;;;;;;;3.85;84.65;98491.19;4441657;32;20100;-83
2022/12/02 06:11:21;;;;;;;49.10;21.80;;;;;;;3.64;84.66;98490.50;4442111;32;20543;-83
2022/12/02 06:13:48;;;;;;;50.15;20.67;;;;;;;3.31;88.09;98490.75;4428066;32;20098;-82
2022/12/02 06:16:17;;;;;;;;;;;;;;;3.72;86.60;98495.53;4441820;32;20102;-83
2022/12/02 06:18:44;;;;;;;47.05;19.27;;;;;;;3.54;87.08;98495.69;4427803;32;19993;-82
2022/12/02 06:21:13;;;;;;;48.85;17.67;;;;;;;3.57;86.54;98501.59;4442191;32;20134;-84
2022/12/02 06:23:45;;;;;;;45.53;15.93;;;;;;;3.71;86.08;98497.22;4430692;32;20117;-80
2022/12/02 06:26:14;;;;;;;51.90;20.25;;;;;;;3.39;87.72;98499.19;4440911;32;20436;-80
2022/12/02 06:28:43;;;;;;;52.67;22.92;;;;;;;3.88;83.85;98497.09;4440797;32;20085;-80
2022/12/02 06:31:36;;;;;;;49.63;20.02;;;;;;;3.83;85.28;98505.66;4426709;32;20150;-80
2022/12/02 06:34:26;;;;;;;42.47;15.95;;;;;;;4.07;84.08;98502.91;4432416;32;20131;-80
2022/12/02 06:36:56;;;;;;;46.03;17.60;;;;;;;3.44;86.40;98502.56;4440514;32;20102;-80
2022/12/02 06:39:23;;;;;;;45.72;18.23;;;;;;;3.91;85.33;98508.97;4440618;32;20440;-80
2022/12/02 06:41:51;;;;;;;44.90;17.50;;;;;;;4.56;82.38;98510.88;4440855;32;20069;-80
2022/12/02 06:47:31;;;;;;;37.88;15.13;;;;;;;4.45;81.35;98529.75;4429077;32;20193;-81
2022/12/02 06:50:04;;;;;;;45.47;13.43;;;;;;;5.12;78.00;98523.84;4440301;32;20135;-81
2022/12/02 06:52:43;;;;;;;44.00;17.12;;;;;;;5.15;77.97;98522.09;4440324;32;20077;-81
2022/12/02 06:55:27;;;;;;;31.98;11.15;;;;;;;5.10;77.12;98523.84;4441149;32;20089;-81
2022/12/02 06:57:56;;;;;;;36.17;14.23;;;;;;;6.13;72.91;98522.31;4440205;32;20162;-80
2022/12/02 07:00:23;;;;;;;34.65;13.10;;;;;;;4.83;77.76;98525.06;4440395;32;20105;-80
2022/12/02 07:02:50;;;;;;;;;;;;;;;5.23;78.16;98530.50;4440954;32;20077;-80
2022/12/02 07:05:20;;;;;;;40.33;15.75;;;;;;;5.22;77.57;98525.41;4440315;32;20015;-80
2022/12/02 07:07:47;;;;;;;43.28;16.77;;;;;;;5.01;78.21;98536.78;4440344;32;20105;-80
2022/12/02 07:10:27;;;;;;;42.20;16.75;;;;;;;4.48;81.28;98529.72;4440382;32;20094;-81
2022/12/02 07:12:56;;;;;;;42.65;16.58;;;;;;;4.11;83.10;98531.78;4426613;32;20188;-80
2022/12/02 07:15:28;;;;;;;47.55;19.73;;;;;;;4.33;82.77;98534.12;4440543;32;20097;-80
2022/12/02 07:17:57;;;;;;;41.20;18.12;;;;;;;4.87;80.54;98534.38;4441327;32;20585;-80
2022/12/02 07:20:31;;;;;;;48.03;18.90;;;;;;;5.07;79.40;98535.84;4426386;32;20094;-80
2022/12/02 07:23:08;;;;;;;43.60;18.12;;;;;;;5.18;78.83;98536.53;4440279;32;20078;-80
2022/12/02 07:25:41;;;;;;;40.55;16.27;;;;;;;5.43;77.14;98532.78;4426189;32;20175;-81
2022/12/02 07:28:25;;;;;;;43.03;18.23;;;;;;;4.58;80.12;98541.56;4435951;32;149889;-80
2022/12/02 07:31:09;;;;;;;41.70;17.02;;;;;;;5.76;76.17;98540.84;4426830;32;20150;-82
2022/12/02 07:33:36;;;;;;;35.97;15.27;;;;;;;5.62;75.87;98542.75;4426081;32;20077;-81
2022/12/02 07:36:03;;;;;;;37.85;15.52;;;;;;;5.55;75.76;98541.16;4439924;32;20136;-82
2022/12/02 07:38:30;;;;;;;39.53;16.45;;;;;;;5.07;78.70;98543.50;4439980;32;20448;-81
2022/12/02 07:41:18;;;;;;;37.38;15.57;;;;;;;5.30;77.70;98550.88;4439516;32;20089;-81
2022/12/02 07:43:45;;;;;;;39.60;16.83;;;;;;;5.68;75.92;98547.78;4439725;32;20086;-82
2022/12/02 07:46:12;;;;;;;37.83;15.05;;;;;;;5.27;76.83;98535.56;4439805;32;20226;-82
2022/12/02 07:48:39;;;;;;;52.97;23.40;;;;;;;4.23;82.78;98542.72;4439547;32;20149;-81
2022/12/02 07:51:06;;;;;;;58.90;25.30;;;;;;;4.80;80.00;98548.13;4439731;32;20093;-81
2022/12/02 07:53:33;;;;;;;45.97;21.10;;;;;;;3.96;84.44;98545.56;4439636;32;20479;-82
2022/12/02 07:56:00;;;;;;;28.55;13.07;;;;;;;3.27;87.46;98540.06;4426402;32;20105;-84
2022/12/02 07:58:26;;;;;;;;;;;;;;;3.56;86.44;98547.56;4440134;32;20115;-84
2022/12/02 08:01:13;;;;;;;36.78;14.80;;;;;;;3.26;89.82;98541.78;4439551;32;20271;-82
2022/12/02 08:03:45;;;;;;;34.25;14.25;;;;;;;3.44;89.10;98549.31;4441355;32;20333;-82
2022/12/02 08:06:12;;;;;;;36.80;14.38;;;;;;;3.37;88.70;98552.75;4441824;32;20158;-81
2022/12/02 08:08:42;;;;;;;33.53;14.27;;;;;;;2.67;93.19;98545.47;4441303;32;20097;-81
2022/12/02 08:11:09;;;;;;;33.03;14.15;;;;;;;3.06;91.88;98541.88;4441692;32;20157;-81
2022/12/02 08:13:35;;;;;;;;;;;;;;;3.80;86.61;98538.88;4442154;32;20104;-81
2022/12/02 08:16:02;;;;;;;35.38;14.52;;;;;;;3.58;88.67;98540.72;4441388;32;19976;-81
2022/12/02 08:18:29;;;;;;;35.42;15.50;;;;;;;3.38;89.55;98539.16;4427963;32;20106;-81
2022/12/02 08:20:56;;;;;;;35.97;15.18;;;;;;;3.38;91.05;98545.97;4441874;32;20131;-81
2022/12/02 08:23:23;;;;;;;;;;;;;;;3.67;88.10;98541.50;4441916;32;20077;-81
2022/12/02 08:25:50;;;;;;;32.90;13.62;;;;;;;3.02;90.41;98542.75;4442018;32;19976;-81
2022/12/02 08:28:16;;;;;;;29.90;11.95;;;;;;;3.38;89.03;98546.81;4442389;32;20108;-80
2022/12/02 08:30:43;;;;;;;;;;;;;;;4.60;84.51;98548.34;4441760;32;20085;-81
2022/12/02 08:33:10;;;;;;;31.17;11.38;;;;;;;5.23;78.68;98543.31;4428028;32;19973;-81
2022/12/02 08:35:38;;;;;;;34.30;14.98;;;;;;;4.78;81.70;98548.97;4441082;32;20466;-80
2022/12/02 08:38:06;;;;;;;33.72;14.65;;;;;;;4.78;81.36;98549.81;4441561;32;20506;-80
2022/12/02 08:40:33;;;;;;;35.13;15.10;;;;;;;5.08;80.65;98561.37;4441458;32;20730;-80
2022/12/02 08:43:01;;;;;;;30.23;13.68;;;;;;;5.12;78.46;98557.09;4441141;32;20085;-80
2022/12/02 08:45:28;;;;;;;35.92;15.00;;;;;;;4.84;81.15;98559.97;4441480;32;20093;-81
2022/12/02 08:47:55;;;;;;;32.33;14.02;;;;;;;5.30;79.23;98564.50;4441506;32;20093;-79
2022/12/02 08:50:23;;;;;;;33.05;14.50;;;;;;;4.69;79.65;98560.16;4427076;32;20154;-81
2022/12/02 08:52:50;;;;;;;31.33;14.02;;;;;;;5.73;76.62;98557.06;4441604;32;20145;-83
2022/12/02 08:55:23;;;;;;;31.90;14.87;;;;;;;5.92;75.09;98559.38;4441364;32;20104;-80
2022/12/02 08:57:50;;;;;;;29.33;13.35;;;;;;;4.89;79.10;98567.59;4441025;32;20154;-80
2022/12/02 09:00:17;;;;;;;;;;;;;;;5.20;78.26;98568.06;4442941;32;20227;-80
2022/12/02 09:02:44;;;;;;;29.92;12.73;;;;;;;5.46;77.58;98568.56;4443481;32;19987;-81
2022/12/02 09:05:11;;;;;;;28.15;11.82;;;;;;;5.43;77.84;98560.94;4443004;32;20096;-82
2022/12/02 09:07:38;;;;;;;29.00;12.63;;;;;;;5.42;77.98;98568.63;4443608;32;20101;-80
2022/12/02 09:10:06;;;;;;;31.45;13.98;;;;;;;5.75;77.07;98564.75;4443159;32;20104;-82
2022/12/02 09:12:33;;;;;;;25.73;12.00;;;;;;;5.67;76.94;98567.41;4443065;32;20352;-81
2022/12/02 09:15:00;;;;;;;28.42;12.55;;;;;;;5.78;76.06;98562.97;4440160;32;20114;-80
2022/12/02 09:17:27;;;;;;;27.30;12.40;;;;;;;5.28;78.36;98566.25;4441260;32;20124;-83
2022/12/02 09:19:54;;;;;;;26.75;11.48;;;;;;;5.21;79.88;98572.34;4440715;32;20088;-83
2022/12/02 09:22:21;;;;;;;;;;;;;;;5.63;76.84;98570.03;4441570;32;20078;-83
2022/12/02 09:24:48;;;;;;;28.10;9.93;;;;;;;5.81;77.41;98570.59;4441664;32;20030;-83
2022/12/02 09:27:15;;;;;;;28.23;13.68;;;;;;;5.97;76.56;98568.69;4441375;32;20136;-81
2022/12/02 09:29:42;;;;;;;25.80;11.63;;;;;;;5.45;78.97;98568.59;4440881;32;20532;-80
2022/12/02 09:32:09;;;;;;;27.92;12.65;;;;;;;6.37;74.26;98565.44;4440758;32;20085;-80
2022/12/02 09:34:36;;;;;;;24.67;11.40;;;;;;;6.04;75.97;98565.16;4440997;32;20093;-80
2022/12/02 09:37:03;;;;;;;25.95;12.50;;;;;;;5.72;75.68;98569.91;4441118;32;20105;-80
2022/12/02 09:39:30;;;;;;;19.20;9.10;;;;;;;5.46;77.94;98570.28;4440666;32;20107;-79
2022/12/02 09:42:05;;;;;;;28.83;13.32;;;;;;;5.68;76.63;98563.13;4441180;32;20069;-79
2022/12/02 09:44:32;;;;;;;28.20;11.93;;;;;;;4.97;80.46;98570.06;4441131;32;20106;-79
2022/12/02 09:46:58;;;;;;;;;;;;;;;4.71;82.17;98565.25;4440975;32;20158;-79
2022/12/02 09:49:25;;;;;;;22.73;9.75;;;;;;;5.17;79.05;98565.53;4440996;32;19996;-79
2022/12/02 09:51:57;;;;;;;29.80;13.10;;;;;;;5.60;77.32;98559.84;4441131;32;20077;-79
2022/12/02 09:54:24;;;;;;;27.55;11.75;;;;;;;5.59;78.77;98556.44;4426776;32;20148;-80
2022/12/02 09:56:51;;;;;;;25.80;11.63;;;;;;;5.66;78.54;98554.66;4440925;32;20440;-79
2022/12/02 09:59:18;;;;;;;;;;;;;;;6.33;74.10;98562.09;4441240;32;20573;-79
2022/12/02 10:01:48;;;;;;;24.83;11.63;;;;;;;6.01;74.96;98559.25;4426860;32;19961;-79
2022/12/02 10:04:18;;;;;;;25.02;11.43;;;;;;;7.20;69.63;98557.00;4440987;32;20116;-80
2022/12/02 10:06:46;;;;;;;25.55;12.43;;;;;;;6.38;74.26;98562.88;4440299;32;20155;-80
2022/12/02 10:09:20;;;;;;;24.25;11.85;;;;;;;6.80;72.59;98557.81;4440773;32;20089;-80
2022/12/02 10:11:47;;;;;;;27.13;12.37;;;;;;;6.41;73.43;98563.69;4440877;32;20078;-80
2022/12/02 10:14:14;;;;;;;;;;;;;;;6.88;72.40;98553.37;4440616;32;20116;-80
2022/12/02 10:16:41;;;;;;;22.98;9.07;;;;;;;6.04;75.46;98554.91;4440927;32;20015;-80
2022/12/02 10:19:16;;;;;;;21.95;11.20;;;;;;;6.79;71.02;98557.84;4427017;32;20104;-80
2022/12/02 10:21:43;;;;;;;17.58;8.55;;;;;;;6.58;72.72;98551.41;4426702;32;20078;-80
2022/12/02 10:24:12;;;;;;;20.48;9.68;;;;;;;6.18;74.25;98549.56;4426804;32;20093;-79
2022/12/02 10:26:47;;;;;;;23.65;10.00;;;;;;;6.54;72.24;98548.06;4440292;32;20154;-80
2022/12/02 10:29:31;;;;;;;22.75;10.98;;;;;;;6.33;74.27;98553.56;4440231;32;20097;-80
2022/12/02 10:32:08;;;;;;;21.90;10.77;;;;;;;6.09;75.54;98555.69;4440661;32;20073;-80
2022/12/02 10:34:35;;;;;;;18.05;7.62;;;;;;;5.92;76.97;98549.12;4426771;32;20152;-79
2022/12/02 10:37:23;;;;;;;18.75;8.70;;;;;;;5.80;77.30;98547.59;4440385;32;20107;-80
2022/12/02 10:40:13;;;;;;;22.90;11.18;;;;;;;5.88;76.77;98548.31;4440618;32;20081;-79
2022/12/02 10:42:42;;;;;;;22.00;10.07;;;;;;;5.47;79.07;98549.78;4440384;32;20458;-79
2022/12/02 10:45:16;;;;;;;22.60;9.57;;;;;;;5.41;79.48;98544.75;4440693;32;20101;-79
2022/12/02 10:47:44;;;;;;;20.70;9.48;;;;;;;5.75;77.59;98541.72;4440785;32;20101;-79
2022/12/02 10:50:22;;;;;;;19.77;8.35;;;;;;;6.20;74.73;98541.84;4440429;32;20166;-79
2022/12/02 10:52:56;;;;;;;18.35;7.87;;;;;;;6.02;76.06;98541.28;4426821;32;20513;-79
2022/12/02 10:55:23;;;;;;;23.15;10.70;;;;;;;5.92;77.25;98544.84;4440549;32;20097;-79
2022/12/02 10:57:50;;;;;;;20.77;10.18;;;;;;;5.74;77.15;98537.44;4426367;32;20109;-79
2022/12/02 11:00:20;;;;;;;21.85;9.98;;;;;;;5.79;78.08;98538.22;4426470;32;20120;-79
2022/12/02 11:02:49;;;;;;;21.87;9.65;;;;;;;5.76;78.15;98534.00;4426465;32;20086;-80
2022/12/02 11:05:18;;;;;;;23.45;10.35;;;;;;;5.76;78.07;98540.84;4440619;32;20097;-80
2022/12/02 11:07:59;;;;;;;22.75;11.20;;;;;;;5.45;79.72;98536.16;4440256;32;20097;-80
2022/12/02 11:10:33;;;;;;;20.90;10.30;;;;;;;6.16;76.20;98537.63;4426213;32;20111;-80
2022/12/02 11:13:29;;;;;;;19.83;9.20;;;;;;;5.73;77.84;98538.31;4426650;32;20150;-80
2022/12/02 11:16:36;;;;;;;22.08;9.38;;;;;;;6.21;75.22;98530.72;4404367;32;20116;-80
2022/12/02 11:19:32;;;;;;;19.90;9.77;;;;;;;5.66;77.88;98536.72;4437701;32;20104;-80
2022/12/02 11:21:59;;;;;;;17.05;7.95;;;;;;;6.07;76.22;98534.38;4440579;32;20138;-80
2022/12/02 11:24:33;;;;;;;23.35;10.10;;;;;;;5.91;76.98;98530.37;4439854;32;20108;-80
2022/12/02 11:27:03;;;;;;;20.35;9.77;;;;;;;5.35;79.58;98531.19;4426561;32;20101;-80
2022/12/02 11:30:05;;;;;;;21.30;9.93;;;;;;;5.69;78.53;98523.88;4440389;32;20160;-80
2022/12/02 11:32:35;;;;;;;21.02;10.05;;;;;;;6.14;75.91;98521.44;4439546;32;20101;-80
2022/12/02 11:35:03;;;;;;;22.80;10.43;;;;;;;6.34;75.87;98527.91;4439930;32;20077;-79
2022/12/02 11:37:47;;;;;;;21.27;10.65;;;;;;;6.34;74.13;98521.94;4427068;32;20168;-80
2022/12/02 11:40:17;;;;;;;20.58;9.95;;;;;;;5.50;77.81;98520.72;4439761;32;20101;-80
2022/12/02 11:42:44;;;;;;;22.85;10.63;;;;;;;5.31;80.57;98521.84;4439999;32;20736;-80
2022/12/02 11:45:14;;;;;;;24.20;10.27;;;;;;;5.11;81.54;98522.16;4439591;32;20150;-80
2022/12/02 11:47:54;;;;;;;19.35;9.73;;;;;;;5.57;79.47;98521.50;4439953;32;20116;-79
2022/12/02 11:50:25;;;;;;;20.35;8.90;;;;;;;5.46;80.52;98519.09;4439963;32;20129;-80
2022/12/02 11:52:58;;;;;;;22.02;10.45;;;;;;;5.38;81.16;98526.88;4439693;32;20084;-80